sensor_id;sensor_type;location;lat;lon;timestamp;P1;durP1;ratioP1;P2;durP2;ratioP2
14060;SDS011;7105;43.616;1.434;2023-03-30T00:00:07;17.63;;;10.40;;
14060;SDS011;7105;43.616;1.434;2023-03-30T00:02:43;15.50;;;9.73;;
14060;SDS011;7105;43.616;1.434;2023-03-30T00:05:10;16.30;;;10.07;;
14060;SDS011;7105;43.616;1.434;2023-03-30T00:07:36;15.93;;;8.03;;
14060;SDS011;7105;43.616;1.434;2023-03-30T00:10:02;15.47;;;7.93;;
14060;SDS011;7105;43.616;1.434;2023-03-30T00:12:31;14.87;;;9.13;;
14060;SDS011;7105;43.616;1.434;2023-03-30T00:14:56;15.93;;;8.73;;
14060;SDS011;7105;43.616;1.434;2023-03-30T00:17:22;19.67;;;8.90;;
14060;SDS011;7105;43.616;1.434;2023-03-30T00:19:48;14.87;;;7.00;;
14060;SDS011;7105;43.616;1.434;2023-03-30T00:22:13;14.30;;;7.53;;
14060;SDS011;7105;43.616;1.434;2023-03-30T00:24:39;12.37;;;7.30;;
14060;SDS011;7105;43.616;1.434;2023-03-30T00:27:05;11.73;;;7.43;;
14060;SDS011;7105;43.616;1.434;2023-03-30T00:29:30;12.57;;;7.50;;
14060;SDS011;7105;43.616;1.434;2023-03-30T00:31:56;15.27;;;7.23;;
14060;SDS011;7105;43.616;1.434;2023-03-30T00:34:22;13.73;;;7.47;;
14060;SDS011;7105;43.616;1.434;2023-03-30T00:36:47;14.00;;;7.53;;
14060;SDS011;7105;43.616;1.434;2023-03-30T00:39:13;11.47;;;6.33;;
14060;SDS011;7105;43.616;1.434;2023-03-30T00:41:43;12.97;;;7.83;;
14060;SDS011;7105;43.616;1.434;2023-03-30T00:47:13;12.63;;;7.47;;
14060;SDS011;7105;43.616;1.434;2023-03-30T00:49:47;11.63;;;7.67;;
14060;SDS011;7105;43.616;1.434;2023-03-30T00:52:12;13.13;;;7.60;;
14060;SDS011;7105;43.616;1.434;2023-03-30T00:54:43;13.40;;;7.70;;
14060;SDS011;7105;43.616;1.434;2023-03-30T00:57:10;15.23;;;7.47;;
14060;SDS011;7105;43.616;1.434;2023-03-30T00:59:36;12.47;;;7.70;;
14060;SDS011;7105;43.616;1.434;2023-03-30T01:02:02;12.83;;;7.73;;
14060;SDS011;7105;43.616;1.434;2023-03-30T01:04:28;15.33;;;8.17;;
14060;SDS011;7105;43.616;1.434;2023-03-30T01:06:53;14.50;;;8.20;;
14060;SDS011;7105;43.616;1.434;2023-03-30T01:09:21;16.10;;;7.87;;
14060;SDS011;7105;43.616;1.434;2023-03-30T01:11:48;15.00;;;8.03;;
14060;SDS011;7105;43.616;1.434;2023-03-30T01:14:14;13.93;;;7.80;;
14060;SDS011;7105;43.616;1.434;2023-03-30T01:16:47;12.70;;;7.70;;
14060;SDS011;7105;43.616;1.434;2023-03-30T01:24:48;16.80;;;7.90;;
14060;SDS011;7105;43.616;1.434;2023-03-30T01:27:38;12.70;;;7.47;;
14060;SDS011;7105;43.616;1.434;2023-03-30T01:41:26;18.97;;;9.17;;
14060;SDS011;7105;43.616;1.434;2023-03-30T01:49:40;12.83;;;7.00;;
14060;SDS011;7105;43.616;1.434;2023-03-30T01:52:17;15.27;;;7.90;;
14060;SDS011;7105;43.616;1.434;2023-03-30T01:55:12;10.30;;;7.30;;
14060;SDS011;7105;43.616;1.434;2023-03-30T02:00:38;13.03;;;7.47;;
14060;SDS011;7105;43.616;1.434;2023-03-30T02:03:12;14.70;;;7.00;;
14060;SDS011;7105;43.616;1.434;2023-03-30T02:05:42;14.63;;;7.27;;
14060;SDS011;7105;43.616;1.434;2023-03-30T02:08:12;12.53;;;7.33;;
14060;SDS011;7105;43.616;1.434;2023-03-30T02:10:42;14.13;;;7.40;;
14060;SDS011;7105;43.616;1.434;2023-03-30T02:13:11;12.47;;;7.03;;
14060;SDS011;7105;43.616;1.434;2023-03-30T02:15:39;15.50;;;7.57;;
14060;SDS011;7105;43.616;1.434;2023-03-30T02:18:10;12.73;;;6.87;;
14060;SDS011;7105;43.616;1.434;2023-03-30T02:20:36;13.17;;;7.07;;
14060;SDS011;7105;43.616;1.434;2023-03-30T02:23:03;14.37;;;6.50;;
14060;SDS011;7105;43.616;1.434;2023-03-30T02:25:33;10.07;;;6.33;;
14060;SDS011;7105;43.616;1.434;2023-03-30T02:28:02;11.77;;;6.27;;
14060;SDS011;7105;43.616;1.434;2023-03-30T02:30:32;12.27;;;6.83;;
14060;SDS011;7105;43.616;1.434;2023-03-30T02:32:59;13.10;;;6.90;;
14060;SDS011;7105;43.616;1.434;2023-03-30T02:40:59;12.33;;;6.27;;
14060;SDS011;7105;43.616;1.434;2023-03-30T02:52:00;14.47;;;6.50;;
14060;SDS011;7105;43.616;1.434;2023-03-30T02:54:41;12.80;;;5.97;;
14060;SDS011;7105;43.616;1.434;2023-03-30T03:00:21;10.20;;;5.57;;
14060;SDS011;7105;43.616;1.434;2023-03-30T03:02:52;10.97;;;5.50;;
14060;SDS011;7105;43.616;1.434;2023-03-30T03:05:22;11.30;;;5.83;;
14060;SDS011;7105;43.616;1.434;2023-03-30T03:07:50;11.10;;;5.27;;
14060;SDS011;7105;43.616;1.434;2023-03-30T03:10:17;11.60;;;5.60;;
14060;SDS011;7105;43.616;1.434;2023-03-30T03:12:43;11.73;;;5.63;;
14060;SDS011;7105;43.616;1.434;2023-03-30T03:15:10;11.83;;;5.47;;
14060;SDS011;7105;43.616;1.434;2023-03-30T03:17:36;11.30;;;5.20;;
14060;SDS011;7105;43.616;1.434;2023-03-30T03:20:03;11.60;;;5.60;;
14060;SDS011;7105;43.616;1.434;2023-03-30T03:22:30;10.17;;;5.80;;
14060;SDS011;7105;43.616;1.434;2023-03-30T03:24:56;8.30;;;5.67;;
14060;SDS011;7105;43.616;1.434;2023-03-30T03:27:21;10.20;;;6.00;;
14060;SDS011;7105;43.616;1.434;2023-03-30T03:29:47;10.23;;;5.60;;
14060;SDS011;7105;43.616;1.434;2023-03-30T03:32:13;12.80;;;6.00;;
14060;SDS011;7105;43.616;1.434;2023-03-30T03:34:39;12.37;;;6.33;;
14060;SDS011;7105;43.616;1.434;2023-03-30T03:37:11;19.77;;;6.47;;
14060;SDS011;7105;43.616;1.434;2023-03-30T03:39:40;12.90;;;6.37;;
14060;SDS011;7105;43.616;1.434;2023-03-30T03:42:06;12.30;;;6.00;;
14060;SDS011;7105;43.616;1.434;2023-03-30T03:44:31;11.60;;;6.50;;
14060;SDS011;7105;43.616;1.434;2023-03-30T03:46:57;16.70;;;6.33;;
14060;SDS011;7105;43.616;1.434;2023-03-30T03:49:23;13.30;;;6.43;;
14060;SDS011;7105;43.616;1.434;2023-03-30T03:51:49;13.10;;;5.83;;
14060;SDS011;7105;43.616;1.434;2023-03-30T03:54:14;11.73;;;6.20;;
14060;SDS011;7105;43.616;1.434;2023-03-30T03:56:40;11.37;;;6.60;;
14060;SDS011;7105;43.616;1.434;2023-03-30T03:59:06;13.63;;;6.53;;
14060;SDS011;7105;43.616;1.434;2023-03-30T04:01:32;9.57;;;6.47;;
14060;SDS011;7105;43.616;1.434;2023-03-30T04:03:57;14.20;;;6.97;;
14060;SDS011;7105;43.616;1.434;2023-03-30T04:06:23;14.50;;;6.67;;
14060;SDS011;7105;43.616;1.434;2023-03-30T04:08:49;14.80;;;6.83;;
14060;SDS011;7105;43.616;1.434;2023-03-30T04:11:14;12.93;;;7.07;;
14060;SDS011;7105;43.616;1.434;2023-03-30T04:13:41;10.73;;;6.03;;
14060;SDS011;7105;43.616;1.434;2023-03-30T04:16:07;17.83;;;7.40;;
14060;SDS011;7105;43.616;1.434;2023-03-30T04:18:33;14.10;;;7.00;;
14060;SDS011;7105;43.616;1.434;2023-03-30T04:21:00;11.10;;;6.87;;
14060;SDS011;7105;43.616;1.434;2023-03-30T04:23:29;11.77;;;5.93;;
14060;SDS011;7105;43.616;1.434;2023-03-30T04:26:01;9.80;;;6.50;;
14060;SDS011;7105;43.616;1.434;2023-03-30T04:28:28;11.70;;;6.87;;
14060;SDS011;7105;43.616;1.434;2023-03-30T04:30:59;9.57;;;6.50;;
14060;SDS011;7105;43.616;1.434;2023-03-30T04:33:29;11.73;;;7.07;;
14060;SDS011;7105;43.616;1.434;2023-03-30T04:35:58;12.73;;;6.93;;
14060;SDS011;7105;43.616;1.434;2023-03-30T04:38:25;11.97;;;6.57;;
14060;SDS011;7105;43.616;1.434;2023-03-30T04:40:52;10.87;;;6.90;;
14060;SDS011;7105;43.616;1.434;2023-03-30T04:43:19;9.50;;;6.77;;
14060;SDS011;7105;43.616;1.434;2023-03-30T04:45:54;13.60;;;7.37;;
14060;SDS011;7105;43.616;1.434;2023-03-30T04:48:21;13.10;;;7.40;;
14060;SDS011;7105;43.616;1.434;2023-03-30T04:50:48;13.87;;;7.87;;
14060;SDS011;7105;43.616;1.434;2023-03-30T04:53:16;9.43;;;6.87;;
14060;SDS011;7105;43.616;1.434;2023-03-30T04:55:45;10.63;;;6.40;;
14060;SDS011;7105;43.616;1.434;2023-03-30T04:58:12;10.80;;;6.73;;
14060;SDS011;7105;43.616;1.434;2023-03-30T05:00:38;11.83;;;6.80;;
14060;SDS011;7105;43.616;1.434;2023-03-30T05:03:04;14.73;;;7.70;;
14060;SDS011;7105;43.616;1.434;2023-03-30T05:05:30;10.43;;;6.83;;
14060;SDS011;7105;43.616;1.434;2023-03-30T05:07:56;12.33;;;7.30;;
14060;SDS011;7105;43.616;1.434;2023-03-30T05:10:22;12.40;;;7.37;;
14060;SDS011;7105;43.616;1.434;2023-03-30T05:12:48;11.13;;;7.20;;
14060;SDS011;7105;43.616;1.434;2023-03-30T05:15:14;10.57;;;6.80;;
14060;SDS011;7105;43.616;1.434;2023-03-30T05:17:40;11.67;;;7.00;;
14060;SDS011;7105;43.616;1.434;2023-03-30T05:20:06;14.37;;;7.70;;
14060;SDS011;7105;43.616;1.434;2023-03-30T05:22:35;12.70;;;7.03;;
14060;SDS011;7105;43.616;1.434;2023-03-30T05:25:02;16.07;;;6.77;;
14060;SDS011;7105;43.616;1.434;2023-03-30T05:27:28;12.83;;;7.03;;
14060;SDS011;7105;43.616;1.434;2023-03-30T05:29:54;10.60;;;7.10;;
14060;SDS011;7105;43.616;1.434;2023-03-30T05:32:20;12.40;;;6.87;;
14060;SDS011;7105;43.616;1.434;2023-03-30T05:34:46;8.00;;;6.13;;
14060;SDS011;7105;43.616;1.434;2023-03-30T05:37:12;12.30;;;6.83;;
14060;SDS011;7105;43.616;1.434;2023-03-30T05:39:38;15.33;;;7.03;;
14060;SDS011;7105;43.616;1.434;2023-03-30T05:42:04;10.20;;;6.00;;
14060;SDS011;7105;43.616;1.434;2023-03-30T05:44:31;13.43;;;6.23;;
14060;SDS011;7105;43.616;1.434;2023-03-30T05:46:57;10.83;;;6.07;;
14060;SDS011;7105;43.616;1.434;2023-03-30T05:49:23;10.57;;;6.33;;
14060;SDS011;7105;43.616;1.434;2023-03-30T05:51:48;13.23;;;6.30;;
14060;SDS011;7105;43.616;1.434;2023-03-30T05:54:15;9.87;;;6.00;;
14060;SDS011;7105;43.616;1.434;2023-03-30T05:56:40;10.63;;;5.57;;
14060;SDS011;7105;43.616;1.434;2023-03-30T05:59:07;15.67;;;5.93;;
14060;SDS011;7105;43.616;1.434;2023-03-30T06:01:34;11.47;;;5.30;;
14060;SDS011;7105;43.616;1.434;2023-03-30T06:04:00;11.27;;;6.17;;
14060;SDS011;7105;43.616;1.434;2023-03-30T06:06:25;10.40;;;5.30;;
14060;SDS011;7105;43.616;1.434;2023-03-30T06:08:52;8.23;;;5.10;;
14060;SDS011;7105;43.616;1.434;2023-03-30T06:11:18;9.07;;;5.60;;
14060;SDS011;7105;43.616;1.434;2023-03-30T06:13:43;8.93;;;5.67;;
14060;SDS011;7105;43.616;1.434;2023-03-30T06:16:09;12.40;;;5.93;;
14060;SDS011;7105;43.616;1.434;2023-03-30T06:18:35;8.23;;;5.30;;
14060;SDS011;7105;43.616;1.434;2023-03-30T06:21:03;9.73;;;4.93;;
14060;SDS011;7105;43.616;1.434;2023-03-30T06:23:35;10.10;;;5.07;;
14060;SDS011;7105;43.616;1.434;2023-03-30T06:26:02;10.23;;;5.43;;
14060;SDS011;7105;43.616;1.434;2023-03-30T06:28:29;11.83;;;5.27;;
14060;SDS011;7105;43.616;1.434;2023-03-30T06:30:55;9.30;;;5.40;;
14060;SDS011;7105;43.616;1.434;2023-03-30T06:33:21;14.20;;;7.40;;
14060;SDS011;7105;43.616;1.434;2023-03-30T06:35:50;9.03;;;5.47;;
14060;SDS011;7105;43.616;1.434;2023-03-30T06:38:17;6.53;;;4.90;;
14060;SDS011;7105;43.616;1.434;2023-03-30T06:40:43;7.57;;;5.00;;
14060;SDS011;7105;43.616;1.434;2023-03-30T06:43:14;10.17;;;5.17;;
14060;SDS011;7105;43.616;1.434;2023-03-30T06:45:42;8.73;;;5.13;;
14060;SDS011;7105;43.616;1.434;2023-03-30T06:48:13;13.43;;;5.73;;
14060;SDS011;7105;43.616;1.434;2023-03-30T06:50:38;10.27;;;4.97;;
14060;SDS011;7105;43.616;1.434;2023-03-30T06:53:04;11.20;;;6.20;;
14060;SDS011;7105;43.616;1.434;2023-03-30T06:55:30;11.50;;;6.27;;
14060;SDS011;7105;43.616;1.434;2023-03-30T06:57:56;9.47;;;5.60;;
14060;SDS011;7105;43.616;1.434;2023-03-30T07:00:22;9.57;;;5.33;;
14060;SDS011;7105;43.616;1.434;2023-03-30T07:02:48;8.77;;;5.67;;
14060;SDS011;7105;43.616;1.434;2023-03-30T07:05:14;9.03;;;5.83;;
14060;SDS011;7105;43.616;1.434;2023-03-30T07:07:40;7.37;;;5.20;;
14060;SDS011;7105;43.616;1.434;2023-03-30T07:10:06;11.30;;;6.53;;
14060;SDS011;7105;43.616;1.434;2023-03-30T07:12:35;8.17;;;5.67;;
14060;SDS011;7105;43.616;1.434;2023-03-30T07:15:01;9.90;;;5.43;;
14060;SDS011;7105;43.616;1.434;2023-03-30T07:17:28;8.30;;;4.90;;
14060;SDS011;7105;43.616;1.434;2023-03-30T07:19:54;11.30;;;5.40;;
14060;SDS011;7105;43.616;1.434;2023-03-30T07:22:20;9.93;;;4.77;;
14060;SDS011;7105;43.616;1.434;2023-03-30T07:24:46;11.80;;;5.23;;
14060;SDS011;7105;43.616;1.434;2023-03-30T07:27:12;8.45;;;4.50;;
14060;SDS011;7105;43.616;1.434;2023-03-30T07:29:37;8.40;;;5.10;;
14060;SDS011;7105;43.616;1.434;2023-03-30T07:32:03;8.98;;;5.15;;
14060;SDS011;7105;43.616;1.434;2023-03-30T07:34:29;8.38;;;4.68;;
14060;SDS011;7105;43.616;1.434;2023-03-30T07:36:55;10.60;;;5.20;;
14060;SDS011;7105;43.616;1.434;2023-03-30T07:39:22;7.68;;;4.65;;
14060;SDS011;7105;43.616;1.434;2023-03-30T07:41:48;8.20;;;4.55;;
14060;SDS011;7105;43.616;1.434;2023-03-30T07:44:14;7.28;;;4.40;;
14060;SDS011;7105;43.616;1.434;2023-03-30T07:46:40;8.20;;;4.35;;
14060;SDS011;7105;43.616;1.434;2023-03-30T07:49:06;7.75;;;4.07;;
14060;SDS011;7105;43.616;1.434;2023-03-30T07:51:32;6.80;;;4.50;;
14060;SDS011;7105;43.616;1.434;2023-03-30T07:53:58;12.40;;;4.97;;
14060;SDS011;7105;43.616;1.434;2023-03-30T07:56:24;9.38;;;4.80;;
14060;SDS011;7105;43.616;1.434;2023-03-30T07:58:50;8.32;;;4.60;;
14060;SDS011;7105;43.616;1.434;2023-03-30T08:01:17;12.43;;;4.43;;
14060;SDS011;7105;43.616;1.434;2023-03-30T08:03:43;6.95;;;4.30;;
14060;SDS011;7105;43.616;1.434;2023-03-30T08:06:09;9.38;;;4.88;;
14060;SDS011;7105;43.616;1.434;2023-03-30T08:08:36;10.75;;;5.20;;
14060;SDS011;7105;43.616;1.434;2023-03-30T08:11:04;8.02;;;4.60;;
14060;SDS011;7105;43.616;1.434;2023-03-30T08:13:31;8.98;;;4.80;;
14060;SDS011;7105;43.616;1.434;2023-03-30T08:15:57;8.45;;;4.70;;
14060;SDS011;7105;43.616;1.434;2023-03-30T08:18:23;7.35;;;4.78;;
14060;SDS011;7105;43.616;1.434;2023-03-30T08:20:50;10.80;;;4.80;;
14060;SDS011;7105;43.616;1.434;2023-03-30T08:23:18;8.80;;;4.00;;
14060;SDS011;7105;43.616;1.434;2023-03-30T08:25:45;9.48;;;4.60;;
14060;SDS011;7105;43.616;1.434;2023-03-30T08:28:15;9.43;;;4.60;;
14060;SDS011;7105;43.616;1.434;2023-03-30T08:30:40;8.43;;;4.90;;
14060;SDS011;7105;43.616;1.434;2023-03-30T08:33:06;11.77;;;4.85;;
14060;SDS011;7105;43.616;1.434;2023-03-30T08:35:33;7.38;;;3.78;;
14060;SDS011;7105;43.616;1.434;2023-03-30T08:37:59;10.50;;;3.83;;
14060;SDS011;7105;43.616;1.434;2023-03-30T08:40:25;8.35;;;3.88;;
14060;SDS011;7105;43.616;1.434;2023-03-30T08:45:35;8.50;;;4.28;;
14060;SDS011;7105;43.616;1.434;2023-03-30T08:48:05;11.15;;;3.88;;
14060;SDS011;7105;43.616;1.434;2023-03-30T08:50:36;11.90;;;3.65;;
14060;SDS011;7105;43.616;1.434;2023-03-30T08:53:02;6.85;;;3.53;;
14060;SDS011;7105;43.616;1.434;2023-03-30T09:09:29;7.43;;;3.13;;
14060;SDS011;7105;43.616;1.434;2023-03-30T09:12:03;8.45;;;3.13;;
14060;SDS011;7105;43.616;1.434;2023-03-30T09:14:36;8.80;;;2.42;;
14060;SDS011;7105;43.616;1.434;2023-03-30T09:17:11;7.55;;;2.75;;
14060;SDS011;7105;43.616;1.434;2023-03-30T09:20:04;6.28;;;2.70;;
14060;SDS011;7105;43.616;1.434;2023-03-30T09:22:40;8.77;;;2.30;;
14060;SDS011;7105;43.616;1.434;2023-03-30T09:25:14;6.85;;;2.70;;
14060;SDS011;7105;43.616;1.434;2023-03-30T09:30:20;8.90;;;2.53;;
14060;SDS011;7105;43.616;1.434;2023-03-30T09:33:33;6.47;;;2.85;;
14060;SDS011;7105;43.616;1.434;2023-03-30T09:35:51;9.40;;;2.35;;
14060;SDS011;7105;43.616;1.434;2023-03-30T09:38:47;5.53;;;2.40;;
14060;SDS011;7105;43.616;1.434;2023-03-30T09:41:19;9.00;;;2.60;;
14060;SDS011;7105;43.616;1.434;2023-03-30T09:44:25;7.00;;;2.22;;
14060;SDS011;7105;43.616;1.434;2023-03-30T09:46:58;7.68;;;2.40;;
14060;SDS011;7105;43.616;1.434;2023-03-30T09:49:28;8.15;;;2.83;;
14060;SDS011;7105;43.616;1.434;2023-03-30T09:52:03;8.98;;;2.78;;
14060;SDS011;7105;43.616;1.434;2023-03-30T09:54:35;9.32;;;2.70;;
14060;SDS011;7105;43.616;1.434;2023-03-30T09:57:02;5.95;;;2.50;;
14060;SDS011;7105;43.616;1.434;2023-03-30T09:59:33;7.10;;;2.00;;
14060;SDS011;7105;43.616;1.434;2023-03-30T10:02:25;7.03;;;2.08;;
14060;SDS011;7105;43.616;1.434;2023-03-30T10:07:21;8.90;;;2.13;;
14060;SDS011;7105;43.616;1.434;2023-03-30T10:09:52;5.65;;;2.47;;
14060;SDS011;7105;43.616;1.434;2023-03-30T10:12:19;7.07;;;2.25;;
14060;SDS011;7105;43.616;1.434;2023-03-30T10:14:51;8.57;;;2.10;;
14060;SDS011;7105;43.616;1.434;2023-03-30T10:17:24;5.80;;;2.25;;
14060;SDS011;7105;43.616;1.434;2023-03-30T10:20:12;7.85;;;2.65;;
14060;SDS011;7105;43.616;1.434;2023-03-30T10:25:34;8.38;;;2.50;;
14060;SDS011;7105;43.616;1.434;2023-03-30T10:28:03;10.32;;;2.63;;
14060;SDS011;7105;43.616;1.434;2023-03-30T10:30:30;10.05;;;2.50;;
14060;SDS011;7105;43.616;1.434;2023-03-30T10:32:58;9.70;;;2.45;;
14060;SDS011;7105;43.616;1.434;2023-03-30T10:35:26;9.85;;;2.72;;
14060;SDS011;7105;43.616;1.434;2023-03-30T10:38:01;9.73;;;2.70;;
14060;SDS011;7105;43.616;1.434;2023-03-30T10:40:33;8.23;;;2.30;;
14060;SDS011;7105;43.616;1.434;2023-03-30T10:43:13;9.55;;;2.50;;
14060;SDS011;7105;43.616;1.434;2023-03-30T11:01:57;7.30;;;2.90;;
14060;SDS011;7105;43.616;1.434;2023-03-30T11:04:49;9.50;;;2.97;;
14060;SDS011;7105;43.616;1.434;2023-03-30T11:07:37;7.18;;;2.20;;
14060;SDS011;7105;43.616;1.434;2023-03-30T11:10:14;9.43;;;2.47;;
14060;SDS011;7105;43.616;1.434;2023-03-30T11:15:29;9.57;;;2.47;;
14060;SDS011;7105;43.616;1.434;2023-03-30T11:23:41;11.35;;;2.83;;
14060;SDS011;7105;43.616;1.434;2023-03-30T11:29:08;8.60;;;2.50;;
14060;SDS011;7105;43.616;1.434;2023-03-30T11:40:47;9.60;;;2.50;;
14060;SDS011;7105;43.616;1.434;2023-03-30T11:43:17;10.55;;;2.70;;
14060;SDS011;7105;43.616;1.434;2023-03-30T11:51:23;10.52;;;2.92;;
14060;SDS011;7105;43.616;1.434;2023-03-30T12:05:28;10.18;;;2.92;;
14060;SDS011;7105;43.616;1.434;2023-03-30T12:08:02;8.60;;;2.70;;
14060;SDS011;7105;43.616;1.434;2023-03-30T12:10:48;9.38;;;3.05;;
14060;SDS011;7105;43.616;1.434;2023-03-30T12:13:21;9.13;;;2.70;;
14060;SDS011;7105;43.616;1.434;2023-03-30T12:15:51;11.43;;;2.80;;
14060;SDS011;7105;43.616;1.434;2023-03-30T12:21:35;16.17;;;2.80;;
14060;SDS011;7105;43.616;1.434;2023-03-30T12:24:17;9.90;;;3.03;;
14060;SDS011;7105;43.616;1.434;2023-03-30T12:26:52;10.38;;;2.80;;
14060;SDS011;7105;43.616;1.434;2023-03-30T12:29:18;9.15;;;2.70;;
14060;SDS011;7105;43.616;1.434;2023-03-30T12:34:31;10.95;;;3.03;;
14060;SDS011;7105;43.616;1.434;2023-03-30T12:37:01;10.68;;;3.17;;
14060;SDS011;7105;43.616;1.434;2023-03-30T12:39:47;10.43;;;3.47;;
14060;SDS011;7105;43.616;1.434;2023-03-30T12:42:32;11.15;;;2.90;;
14060;SDS011;7105;43.616;1.434;2023-03-30T12:45:36;9.18;;;3.22;;
14060;SDS011;7105;43.616;1.434;2023-03-30T12:53:22;9.60;;;2.65;;
14060;SDS011;7105;43.616;1.434;2023-03-30T12:56:07;9.15;;;2.75;;
14060;SDS011;7105;43.616;1.434;2023-03-30T13:05:03;9.80;;;3.00;;
14060;SDS011;7105;43.616;1.434;2023-03-30T13:07:41;10.20;;;3.00;;
14060;SDS011;7105;43.616;1.434;2023-03-30T13:10:49;11.43;;;2.95;;
14060;SDS011;7105;43.616;1.434;2023-03-30T13:13:03;9.27;;;2.90;;
14060;SDS011;7105;43.616;1.434;2023-03-30T13:15:40;6.35;;;2.72;;
14060;SDS011;7105;43.616;1.434;2023-03-30T13:31:10;9.38;;;3.03;;
14060;SDS011;7105;43.616;1.434;2023-03-30T13:33:50;11.38;;;2.92;;
14060;SDS011;7105;43.616;1.434;2023-03-30T13:37:11;12.68;;;3.38;;
14060;SDS011;7105;43.616;1.434;2023-03-30T13:50:29;10.82;;;3.30;;
14060;SDS011;7105;43.616;1.434;2023-03-30T13:52:59;11.70;;;3.22;;
14060;SDS011;7105;43.616;1.434;2023-03-30T13:58:06;9.98;;;3.20;;
14060;SDS011;7105;43.616;1.434;2023-03-30T14:00:40;10.93;;;3.33;;
14060;SDS011;7105;43.616;1.434;2023-03-30T14:06:02;11.65;;;3.10;;
14060;SDS011;7105;43.616;1.434;2023-03-30T14:08:29;10.75;;;3.20;;
14060;SDS011;7105;43.616;1.434;2023-03-30T14:10:59;7.50;;;2.65;;
14060;SDS011;7105;43.616;1.434;2023-03-30T14:13:31;10.63;;;3.45;;
14060;SDS011;7105;43.616;1.434;2023-03-30T14:15:58;11.98;;;3.63;;
14060;SDS011;7105;43.616;1.434;2023-03-30T14:18:24;8.48;;;2.90;;
14060;SDS011;7105;43.616;1.434;2023-03-30T14:20:59;9.50;;;3.40;;
14060;SDS011;7105;43.616;1.434;2023-03-30T14:23:34;10.77;;;3.20;;
14060;SDS011;7105;43.616;1.434;2023-03-30T14:26:11;9.32;;;3.25;;
14060;SDS011;7105;43.616;1.434;2023-03-30T14:28:37;10.80;;;2.90;;
14060;SDS011;7105;43.616;1.434;2023-03-30T14:31:19;11.68;;;3.92;;
14060;SDS011;7105;43.616;1.434;2023-03-30T14:33:45;12.20;;;3.60;;
14060;SDS011;7105;43.616;1.434;2023-03-30T14:36:12;7.88;;;2.95;;
14060;SDS011;7105;43.616;1.434;2023-03-30T14:38:41;11.13;;;3.15;;
14060;SDS011;7105;43.616;1.434;2023-03-30T14:43:57;8.75;;;3.00;;
14060;SDS011;7105;43.616;1.434;2023-03-30T14:46:44;14.15;;;3.17;;
14060;SDS011;7105;43.616;1.434;2023-03-30T14:49:15;10.63;;;3.25;;
14060;SDS011;7105;43.616;1.434;2023-03-30T14:51:58;10.98;;;3.38;;
14060;SDS011;7105;43.616;1.434;2023-03-30T14:54:26;10.07;;;3.42;;
14060;SDS011;7105;43.616;1.434;2023-03-30T14:56:59;10.23;;;3.10;;
14060;SDS011;7105;43.616;1.434;2023-03-30T14:59:28;8.23;;;2.72;;
14060;SDS011;7105;43.616;1.434;2023-03-30T15:01:56;12.57;;;2.65;;
14060;SDS011;7105;43.616;1.434;2023-03-30T15:04:23;10.90;;;3.38;;
14060;SDS011;7105;43.616;1.434;2023-03-30T15:06:53;11.57;;;3.42;;
14060;SDS011;7105;43.616;1.434;2023-03-30T15:09:20;9.80;;;3.03;;
14060;SDS011;7105;43.616;1.434;2023-03-30T15:11:52;10.45;;;3.50;;
14060;SDS011;7105;43.616;1.434;2023-03-30T15:14:23;9.30;;;3.22;;
14060;SDS011;7105;43.616;1.434;2023-03-30T15:16:53;9.95;;;3.25;;
14060;SDS011;7105;43.616;1.434;2023-03-30T15:19:28;13.65;;;3.00;;
14060;SDS011;7105;43.616;1.434;2023-03-30T15:21:57;9.63;;;3.33;;
14060;SDS011;7105;43.616;1.434;2023-03-30T15:24:29;12.05;;;3.90;;
14060;SDS011;7105;43.616;1.434;2023-03-30T15:27:01;9.68;;;3.00;;
14060;SDS011;7105;43.616;1.434;2023-03-30T15:29:30;7.22;;;2.72;;
14060;SDS011;7105;43.616;1.434;2023-03-30T15:32:06;11.50;;;3.40;;
14060;SDS011;7105;43.616;1.434;2023-03-30T15:34:36;8.57;;;3.20;;
14060;SDS011;7105;43.616;1.434;2023-03-30T15:37:21;10.40;;;3.15;;
14060;SDS011;7105;43.616;1.434;2023-03-30T15:39:47;9.02;;;3.05;;
14060;SDS011;7105;43.616;1.434;2023-03-30T15:42:22;13.32;;;3.17;;
14060;SDS011;7105;43.616;1.434;2023-03-30T15:45:01;12.30;;;3.20;;
14060;SDS011;7105;43.616;1.434;2023-03-30T15:47:35;7.82;;;2.92;;
14060;SDS011;7105;43.616;1.434;2023-03-30T15:50:01;10.05;;;2.92;;
14060;SDS011;7105;43.616;1.434;2023-03-30T15:52:32;6.05;;;2.72;;
14060;SDS011;7105;43.616;1.434;2023-03-30T15:57:40;6.43;;;2.85;;
14060;SDS011;7105;43.616;1.434;2023-03-30T16:00:12;8.68;;;2.92;;
14060;SDS011;7105;43.616;1.434;2023-03-30T16:02:46;11.65;;;3.65;;
14060;SDS011;7105;43.616;1.434;2023-03-30T16:05:26;11.63;;;3.22;;
14060;SDS011;7105;43.616;1.434;2023-03-30T16:07:57;9.65;;;3.10;;
14060;SDS011;7105;43.616;1.434;2023-03-30T16:10:24;11.30;;;3.30;;
14060;SDS011;7105;43.616;1.434;2023-03-30T16:12:55;11.50;;;3.13;;
14060;SDS011;7105;43.616;1.434;2023-03-30T16:15:23;10.35;;;3.33;;
14060;SDS011;7105;43.616;1.434;2023-03-30T16:17:51;7.25;;;2.88;;
14060;SDS011;7105;43.616;1.434;2023-03-30T16:20:18;11.82;;;3.42;;
14060;SDS011;7105;43.616;1.434;2023-03-30T16:22:48;8.75;;;2.83;;
14060;SDS011;7105;43.616;1.434;2023-03-30T16:25:14;7.10;;;2.75;;
14060;SDS011;7105;43.616;1.434;2023-03-30T16:27:42;12.57;;;3.40;;
14060;SDS011;7105;43.616;1.434;2023-03-30T16:32:42;10.45;;;3.35;;
14060;SDS011;7105;43.616;1.434;2023-03-30T16:35:08;10.07;;;2.92;;
14060;SDS011;7105;43.616;1.434;2023-03-30T16:37:35;8.73;;;3.05;;
14060;SDS011;7105;43.616;1.434;2023-03-30T16:40:01;11.30;;;3.40;;
14060;SDS011;7105;43.616;1.434;2023-03-30T16:42:30;11.02;;;3.03;;
14060;SDS011;7105;43.616;1.434;2023-03-30T16:44:56;8.73;;;2.80;;
14060;SDS011;7105;43.616;1.434;2023-03-30T16:47:21;11.23;;;3.13;;
14060;SDS011;7105;43.616;1.434;2023-03-30T16:49:47;8.68;;;3.17;;
14060;SDS011;7105;43.616;1.434;2023-03-30T16:52:16;7.63;;;2.50;;
14060;SDS011;7105;43.616;1.434;2023-03-30T16:54:54;9.05;;;3.22;;
14060;SDS011;7105;43.616;1.434;2023-03-30T16:57:20;8.82;;;3.17;;
14060;SDS011;7105;43.616;1.434;2023-03-30T16:59:45;11.77;;;3.17;;
14060;SDS011;7105;43.616;1.434;2023-03-30T17:02:11;11.68;;;2.75;;
14060;SDS011;7105;43.616;1.434;2023-03-30T17:04:37;11.48;;;3.33;;
14060;SDS011;7105;43.616;1.434;2023-03-30T17:07:02;10.00;;;3.25;;
14060;SDS011;7105;43.616;1.434;2023-03-30T17:09:28;10.32;;;3.13;;
14060;SDS011;7105;43.616;1.434;2023-03-30T17:11:54;9.15;;;3.13;;
14060;SDS011;7105;43.616;1.434;2023-03-30T17:14:20;13.63;;;3.20;;
14060;SDS011;7105;43.616;1.434;2023-03-30T17:16:47;12.43;;;3.30;;
14060;SDS011;7105;43.616;1.434;2023-03-30T17:19:12;8.60;;;3.03;;
14060;SDS011;7105;43.616;1.434;2023-03-30T17:21:38;10.82;;;3.28;;
14060;SDS011;7105;43.616;1.434;2023-03-30T17:24:06;7.93;;;3.08;;
14060;SDS011;7105;43.616;1.434;2023-03-30T17:26:34;8.90;;;3.00;;
14060;SDS011;7105;43.616;1.434;2023-03-30T17:28:59;8.50;;;3.13;;
14060;SDS011;7105;43.616;1.434;2023-03-30T17:31:25;8.55;;;3.10;;
14060;SDS011;7105;43.616;1.434;2023-03-30T17:33:51;9.95;;;2.95;;
14060;SDS011;7105;43.616;1.434;2023-03-30T17:36:23;11.80;;;3.33;;
14060;SDS011;7105;43.616;1.434;2023-03-30T17:38:50;8.32;;;2.90;;
14060;SDS011;7105;43.616;1.434;2023-03-30T17:41:17;8.38;;;3.20;;
14060;SDS011;7105;43.616;1.434;2023-03-30T17:43:44;10.70;;;3.22;;
14060;SDS011;7105;43.616;1.434;2023-03-30T17:46:12;9.43;;;3.28;;
14060;SDS011;7105;43.616;1.434;2023-03-30T17:48:39;11.32;;;3.17;;
14060;SDS011;7105;43.616;1.434;2023-03-30T17:51:05;10.05;;;3.10;;
14060;SDS011;7105;43.616;1.434;2023-03-30T17:53:31;8.05;;;2.85;;
14060;SDS011;7105;43.616;1.434;2023-03-30T17:55:57;10.52;;;3.08;;
14060;SDS011;7105;43.616;1.434;2023-03-30T17:58:24;11.25;;;3.00;;
14060;SDS011;7105;43.616;1.434;2023-03-30T18:00:57;12.18;;;3.38;;
14060;SDS011;7105;43.616;1.434;2023-03-30T18:03:23;14.13;;;3.45;;
14060;SDS011;7105;43.616;1.434;2023-03-30T18:05:50;9.50;;;3.08;;